KMKG/MKG METAR and TAF weather

Enter ICAO airport designator
Station Type Date Time Source
KMKG METAR 2022/06/28 08:55 UTC NOAA

KMKG 280855Z AUTO 00000KT 10SM CLR 12/09 A3021 RMK AO2 SLP229 T01170089 55003


Station Type Date Time Source
KMKG Decoded METAR 2022/06/28 08:55 UTC NOAA

MUSKEGON COUNTY AIRPORT, MI, United States (KMKG) 43-10N 086-14W 191M
Jun 28, 2022 - 04:55 AM EDT / 2022.06.28 0855 UTC
Wind: Calm:0
Visibility: 10 mile(s):0
Sky conditions: clear
Temperature: 53.1 F (11.7 C)
Dew Point: 48.0 F (8.9 C)
Relative Humidity: 82%
Pressure (altimeter): 30.21 in. Hg (1023 hPa)
Pressure tendency: 0.01 inches (0.3 hPa) lower than three hours ago
ob: KMKG 280855Z AUTO 00000KT 10SM CLR 12/09 A3021 RMK AO2 SLP229 T01170089 55003
cycle: 9

Station Type Date Time Source
KMKG TAF 2022/06/28 06:42 UTC NOAA

TAF KMKG 280540Z 2806/2906 21005KT P6SM SKC
FM281200 21012KT P6SM FEW250
FM290000 21009KT P6SM -SHRA BKN090

Example: see airport list